Wetterdaten: Woche 04.02.08 - 10.02.08 (KW6)
Datum Zeit Temperatur Luftfeuchte Luftdruck Niederschlag Wind Richtung Sonnenschein Solar Taupunkt Windchill Windben
04.02.2008 00:00 -3.7 C 96 % 1011.5 hPa 0.0 l/m 0.3 km/h (0 Bft) O-SO 0.00 h 0 W/m -4.2 C -3.7 C 1.2 km/h (1 Bft)
04.02.2008 01:00 -3.7 C 97 % 1010.5 hPa 0.0 l/m 0.8 km/h (0 Bft) SO 0.00 h 0 W/m -4.1 C -3.8 C 2.1 km/h (1 Bft)
04.02.2008 02:00 -3.5 C 97 % 1010.3 hPa 0.0 l/m 1.4 km/h (1 Bft) S-SO 0.00 h 0 W/m -3.9 C -3.6 C 2.8 km/h (1 Bft)
04.02.2008 03:00 -3.3 C 97 % 1009.8 hPa 0.0 l/m 1.0 km/h (0 Bft) SO 0.00 h 0 W/m -3.7 C -3.4 C 2.3 km/h (1 Bft)
04.02.2008 04:00 -3.5 C 97 % 1008.6 hPa 0.0 l/m 0.8 km/h (0 Bft) O-SO 0.00 h 0 W/m -3.9 C -3.5 C 1.8 km/h (1 Bft)
04.02.2008 05:00 -3.5 C 97 % 1008.3 hPa 0.0 l/m 2.1 km/h (1 Bft) O-SO 0.00 h 0 W/m -3.9 C -4.1 C 3.2 km/h (1 Bft)
04.02.2008 06:00 -3.1 C 97 % 1008.2 hPa 0.0 l/m 0.9 km/h (0 Bft) NW 0.00 h 0 W/m -3.5 C -3.1 C 1.9 km/h (1 Bft)
04.02.2008 07:00 -2.4 C 97 % 1007.9 hPa 0.0 l/m 2.2 km/h (1 Bft) N-NW 0.00 h 0 W/m -2.9 C -2.8 C 4.8 km/h (1 Bft)
04.02.2008 08:00 -1.3 C 98 % 1007.3 hPa 0.0 l/m 2.4 km/h (1 Bft) S-SO 0.00 h 9 W/m -1.7 C -1.9 C 4.4 km/h (1 Bft)
04.02.2008 09:00 -0.7 C 94 % 1008.4 hPa 0.0 l/m 2.2 km/h (1 Bft) SO 0.00 h 35 W/m -1.5 C -1.0 C 3.9 km/h (1 Bft)
04.02.2008 10:00 0.2 C 90 % 1009.3 hPa 0.0 l/m 5.3 km/h (1 Bft) S-SO 0.00 h 117 W/m -1.2 C -1.3 C 9.2 km/h (2 Bft)
04.02.2008 11:00 1.7 C 82 % 1010.4 hPa 0.0 l/m 3.1 km/h (1 Bft) SW 0.03 h 159 W/m -1.0 C 1.3 C 5.9 km/h (2 Bft)
04.02.2008 12:00 3.0 C 79 % 1010.9 hPa 0.0 l/m 5.0 km/h (1 Bft) S-SO 0.00 h 163 W/m -0.3 C 2.1 C 9.0 km/h (2 Bft)
04.02.2008 13:00 3.5 C 85 % 1011.0 hPa 0.2 l/m 4.6 km/h (1 Bft) S 0.00 h 134 W/m 1.2 C 2.7 C 8.7 km/h (2 Bft)
04.02.2008 14:00 3.5 C 91 % 1011.2 hPa 0.6 l/m 2.2 km/h (1 Bft) S-SO 0.00 h 68 W/m 2.1 C 3.3 C 4.7 km/h (1 Bft)
04.02.2008 15:00 3.3 C 93 % 1011.8 hPa 0.0 l/m 3.3 km/h (1 Bft) O-SO 0.00 h 50 W/m 2.3 C 2.9 C 4.9 km/h (1 Bft)
04.02.2008 16:00 3.6 C 90 % 1012.3 hPa 0.0 l/m 6.0 km/h (2 Bft) S-SO 0.00 h 25 W/m 2.0 C 2.2 C 9.6 km/h (2 Bft)
04.02.2008 17:00 3.3 C 90 % 1013.0 hPa 0.0 l/m 3.7 km/h (1 Bft) S-SO 0.00 h 6 W/m 1.8 C 2.8 C 6.6 km/h (2 Bft)
04.02.2008 18:00 3.2 C 90 % 1013.9 hPa 0.0 l/m 1.4 km/h (1 Bft) S 0.00 h 0 W/m 1.7 C 3.2 C 3.4 km/h (1 Bft)
04.02.2008 19:00 3.1 C 91 % 1015.1 hPa 0.0 l/m 0.9 km/h (0 Bft) W 0.00 h 0 W/m 1.8 C 3.1 C 2.5 km/h (1 Bft)
04.02.2008 20:00 3.0 C 93 % 1016.1 hPa 0.0 l/m 1.5 km/h (1 Bft) W-SW 0.00 h 0 W/m 2.0 C 2.9 C 3.2 km/h (1 Bft)
04.02.2008 21:00 3.3 C 92 % 1017.4 hPa 0.0 l/m 2.6 km/h (1 Bft) SW 0.00 h 0 W/m 2.1 C 3.1 C 4.9 km/h (1 Bft)
04.02.2008 22:00 3.2 C 94 % 1018.7 hPa 0.6 l/m 1.5 km/h (1 Bft) S-SW 0.00 h 0 W/m 2.3 C 3.2 C 3.9 km/h (1 Bft)
04.02.2008 23:00 3.1 C 97 % 1019.5 hPa 0.2 l/m 2.9 km/h (1 Bft) S-SW 0.00 h 0 W/m 2.6 C 2.9 C 5.5 km/h (1 Bft)
05.02.2008 00:00 3.0 C 97 % 1020.1 hPa 0.0 l/m 0.8 km/h (0 Bft) S-SW 0.00 h 0 W/m 2.6 C 3.0 C 2.0 km/h (1 Bft)
05.02.2008 01:00 2.9 C 97 % 1020.8 hPa 0.0 l/m 2.3 km/h (1 Bft) S-SO 0.00 h 0 W/m 2.4 C 2.5 C 4.2 km/h (1 Bft)
05.02.2008 02:00 2.7 C 96 % 1021.4 hPa 0.0 l/m 1.4 km/h (1 Bft) S-SO 0.00 h 0 W/m 2.1 C 2.6 C 3.4 km/h (1 Bft)
05.02.2008 03:00 2.2 C 96 % 1021.5 hPa 0.0 l/m 3.2 km/h (1 Bft) S-SO 0.00 h 0 W/m 1.6 C 1.7 C 4.8 km/h (1 Bft)
05.02.2008 04:00 1.2 C 96 % 1021.6 hPa 0.0 l/m 4.0 km/h (1 Bft) O-SO 0.00 h 0 W/m 0.6 C 0.6 C 5.5 km/h (1 Bft)
05.02.2008 05:00 1.0 C 96 % 1021.6 hPa 0.0 l/m 1.2 km/h (1 Bft) O-SO 0.00 h 0 W/m 0.5 C 0.9 C 2.4 km/h (1 Bft)
05.02.2008 06:00 0.5 C 96 % 1021.9 hPa 0.0 l/m 0.8 km/h (0 Bft) O 0.00 h 0 W/m -0.1 C 0.4 C 1.8 km/h (1 Bft)
05.02.2008 07:00 -0.4 C 96 % 1022.5 hPa 0.0 l/m 0.7 km/h (0 Bft) SO 0.00 h 7 W/m -1.0 C -0.6 C 1.2 km/h (1 Bft)
05.02.2008 08:00 -0.7 C 97 % 1023.1 hPa 0.0 l/m 0.4 km/h (0 Bft) SO 0.33 h 46 W/m -1.1 C -0.7 C 1.2 km/h (1 Bft)
05.02.2008 09:00 1.0 C 98 % 1023.0 hPa 0.0 l/m 3.1 km/h (1 Bft) SO 0.22 h 108 W/m 0.7 C 0.3 C 5.7 km/h (1 Bft)
05.02.2008 10:00 3.4 C 89 % 1022.8 hPa 0.0 l/m 3.1 km/h (1 Bft) S-SO 0.65 h 247 W/m 1.8 C 3.0 C 6.3 km/h (2 Bft)
05.02.2008 11:00 5.0 C 81 % 1022.9 hPa 0.0 l/m 5.5 km/h (1 Bft) S-SW 0.35 h 246 W/m 2.0 C 4.1 C 10.4 km/h (2 Bft)
05.02.2008 12:00 5.3 C 78 % 1022.9 hPa 0.0 l/m 5.7 km/h (1 Bft) S-SW 0.00 h 156 W/m 1.8 C 4.3 C 11.3 km/h (2 Bft)
05.02.2008 13:00 5.5 C 76 % 1022.5 hPa 0.0 l/m 4.0 km/h (1 Bft) S-SW 0.00 h 127 W/m 1.7 C 5.0 C 8.1 km/h (2 Bft)
05.02.2008 14:00 6.1 C 74 % 1022.2 hPa 0.0 l/m 4.1 km/h (1 Bft) S-SO 0.00 h 149 W/m 1.7 C 5.6 C 7.8 km/h (2 Bft)
05.02.2008 15:00 6.5 C 70 % 1022.3 hPa 0.0 l/m 4.4 km/h (1 Bft) S-SO 0.00 h 87 W/m 1.4 C 6.0 C 8.1 km/h (2 Bft)
05.02.2008 16:00 6.4 C 69 % 1022.2 hPa 0.0 l/m 4.2 km/h (1 Bft) S 0.00 h 43 W/m 1.0 C 5.9 C 8.2 km/h (2 Bft)
05.02.2008 17:00 6.1 C 69 % 1022.7 hPa 0.0 l/m 2.3 km/h (1 Bft) S-SW 0.00 h 10 W/m 0.9 C 5.9 C 5.2 km/h (1 Bft)
05.02.2008 18:00 5.6 C 72 % 1023.1 hPa 0.0 l/m 1.2 km/h (1 Bft) S-SO 0.00 h 0 W/m 1.0 C 5.6 C 2.3 km/h (1 Bft)
05.02.2008 19:00 5.3 C 77 % 1023.1 hPa 0.0 l/m 0.6 km/h (0 Bft) O-SO 0.00 h 0 W/m 1.6 C 5.3 C 1.9 km/h (1 Bft)
05.02.2008 20:00 5.1 C 83 % 1023.3 hPa 0.2 l/m 1.2 km/h (1 Bft) O-SO 0.00 h 0 W/m 2.4 C 5.0 C 2.9 km/h (1 Bft)
05.02.2008 21:00 5.6 C 76 % 1023.0 hPa 0.0 l/m 3.0 km/h (1 Bft) S-SO 0.00 h 0 W/m 1.8 C 5.3 C 6.1 km/h (2 Bft)
05.02.2008 22:00 6.1 C 72 % 1022.7 hPa 0.0 l/m 5.8 km/h (2 Bft) S-SW 0.00 h 0 W/m 1.5 C 5.2 C 11.1 km/h (2 Bft)
05.02.2008 23:00 6.1 C 72 % 1022.2 hPa 0.0 l/m 4.6 km/h (1 Bft) S 0.00 h 0 W/m 1.5 C 5.4 C 9.9 km/h (2 Bft)
06.02.2008 00:00 6.0 C 74 % 1022.1 hPa 0.0 l/m 4.7 km/h (1 Bft) S-SW 0.00 h 0 W/m 1.7 C 5.5 C 8.9 km/h (2 Bft)
06.02.2008 01:00 6.5 C 72 % 1022.0 hPa 0.0 l/m 4.0 km/h (1 Bft) S 0.00 h 0 W/m 1.9 C 6.0 C 8.7 km/h (2 Bft)
06.02.2008 02:00 7.5 C 71 % 1021.4 hPa 0.0 l/m 9.6 km/h (2 Bft) S-SW 0.00 h 0 W/m 2.5 C 5.9 C 17.1 km/h (3 Bft)
06.02.2008 03:00 7.3 C 71 % 1021.3 hPa 0.0 l/m 9.6 km/h (2 Bft) S 0.00 h 0 W/m 2.4 C 5.6 C 17.8 km/h (3 Bft)
06.02.2008 04:00 6.9 C 82 % 1021.7 hPa 2.4 l/m 2.1 km/h (1 Bft) SO 0.00 h 0 W/m 4.1 C 6.7 C 3.7 km/h (1 Bft)
06.02.2008 05:00 6.7 C 90 % 1022.3 hPa 0.4 l/m 5.2 km/h (1 Bft) S 0.00 h 0 W/m 5.3 C 6.0 C 9.6 km/h (2 Bft)
06.02.2008 06:00 6.8 C 90 % 1022.5 hPa 0.4 l/m 6.8 km/h (2 Bft) S-SW 0.00 h 0 W/m 5.3 C 5.6 C 13.3 km/h (3 Bft)
06.02.2008 07:00 6.5 C 90 % 1023.1 hPa 0.0 l/m 7.2 km/h (2 Bft) SW 0.00 h 0 W/m 5.0 C 5.2 C 13.9 km/h (3 Bft)
06.02.2008 08:00 6.6 C 90 % 1023.5 hPa 0.0 l/m 7.0 km/h (2 Bft) SW 0.00 h 12 W/m 5.1 C 5.3 C 13.2 km/h (3 Bft)
06.02.2008 09:00 7.2 C 90 % 1024.0 hPa 1.4 l/m 7.0 km/h (2 Bft) S-SW 0.00 h 35 W/m 5.6 C 6.0 C 13.2 km/h (3 Bft)
06.02.2008 10:00 7.6 C 91 % 1024.8 hPa 0.2 l/m 8.0 km/h (2 Bft) S-SW 0.07 h 83 W/m 6.2 C 6.2 C 14.9 km/h (3 Bft)
06.02.2008 11:00 8.0 C 89 % 1025.5 hPa 0.2 l/m 7.8 km/h (2 Bft) SW 0.00 h 67 W/m 6.3 C 6.7 C 14.7 km/h (3 Bft)
06.02.2008 12:00 9.3 C 80 % 1025.6 hPa 0.0 l/m 12.1 km/h (2 Bft) W 0.05 h 153 W/m 5.9 C 8.3 C 18.7 km/h (3 Bft)
06.02.2008 13:00 10.7 C 67 % 1025.9 hPa 0.2 l/m 18.5 km/h (3 Bft) W 0.18 h 198 W/m 4.8 C 10.7 C 27.1 km/h (4 Bft)
06.02.2008 14:00 11.3 C 64 % 1025.9 hPa 0.0 l/m 17.5 km/h (3 Bft) W 0.40 h 223 W/m 4.7 C 11.3 C 25.1 km/h (4 Bft)
06.02.2008 15:00 9.5 C 73 % 1026.4 hPa 0.4 l/m 19.5 km/h (3 Bft) W 0.02 h 65 W/m 4.8 C 7.6 C 28.0 km/h (4 Bft)
06.02.2008 16:00 9.3 C 74 % 1027.2 hPa 0.0 l/m 14.7 km/h (3 Bft) W 0.00 h 54 W/m 5.0 C 7.2 C 20.6 km/h (4 Bft)
06.02.2008 17:00 9.8 C 68 % 1027.7 hPa 0.0 l/m 11.4 km/h (2 Bft) W 0.00 h 11 W/m 4.1 C 8.2 C 16.8 km/h (3 Bft)
06.02.2008 18:00 8.8 C 75 % 1028.9 hPa 0.2 l/m 10.9 km/h (2 Bft) W 0.00 h 0 W/m 4.7 C 7.1 C 16.7 km/h (3 Bft)
06.02.2008 19:00 8.6 C 69 % 1030.1 hPa 0.0 l/m 14.1 km/h (3 Bft) W-NW 0.00 h 0 W/m 3.2 C 6.4 C 21.0 km/h (4 Bft)
06.02.2008 20:00 7.3 C 70 % 1031.3 hPa 0.0 l/m 6.0 km/h (2 Bft) W-NW 0.00 h 0 W/m 2.1 C 6.3 C 9.7 km/h (2 Bft)
06.02.2008 21:00 7.0 C 74 % 1032.7 hPa 0.0 l/m 3.8 km/h (1 Bft) NW 0.00 h 0 W/m 2.7 C 6.6 C 6.3 km/h (2 Bft)
06.02.2008 22:00 6.1 C 80 % 1033.5 hPa 0.0 l/m 3.2 km/h (1 Bft) W 0.00 h 0 W/m 3.0 C 5.8 C 4.8 km/h (1 Bft)
06.02.2008 23:00 5.0 C 83 % 1034.2 hPa 0.0 l/m 2.9 km/h (1 Bft) O-SO 0.00 h 0 W/m 2.3 C 4.5 C 4.0 km/h (1 Bft)
07.02.2008 00:00 4.3 C 86 % 1034.6 hPa 0.0 l/m 2.4 km/h (1 Bft) O-SO 0.00 h 0 W/m 2.2 C 4.0 C 3.8 km/h (1 Bft)
07.02.2008 01:00 3.7 C 87 % 1035.0 hPa 0.0 l/m 0.8 km/h (0 Bft) O-SO 0.00 h 0 W/m 1.7 C 3.7 C 1.4 km/h (1 Bft)
07.02.2008 02:00 2.6 C 90 % 1035.7 hPa 0.0 l/m 0.5 km/h (0 Bft) O-SO 0.00 h 0 W/m 1.1 C 2.5 C 1.1 km/h (1 Bft)
07.02.2008 03:00 2.3 C 93 % 1036.4 hPa 0.0 l/m 0.7 km/h (0 Bft) O-SO 0.00 h 0 W/m 1.3 C 2.3 C 1.3 km/h (1 Bft)
07.02.2008 04:00 2.2 C 94 % 1036.5 hPa 0.0 l/m 0.7 km/h (0 Bft) O-SO 0.00 h 0 W/m 1.3 C 2.2 C 1.2 km/h (1 Bft)
07.02.2008 05:00 2.1 C 95 % 1037.0 hPa 0.0 l/m 1.3 km/h (1 Bft) O-SO 0.00 h 0 W/m 1.4 C 2.1 C 1.9 km/h (1 Bft)
07.02.2008 06:00 1.8 C 95 % 1037.3 hPa 0.0 l/m 1.0 km/h (0 Bft) O-SO 0.00 h 0 W/m 1.1 C 1.8 C 1.6 km/h (1 Bft)
07.02.2008 07:00 1.4 C 95 % 1037.8 hPa 0.0 l/m 0.3 km/h (0 Bft) O-SO 0.02 h 7 W/m 0.7 C 1.4 C 0.7 km/h (0 Bft)
07.02.2008 08:00 0.9 C 96 % 1038.4 hPa 0.0 l/m 0.4 km/h (0 Bft) O-SO 0.12 h 44 W/m 0.3 C 0.9 C 0.7 km/h (0 Bft)
07.02.2008 09:00 1.6 C 98 % 1038.6 hPa 0.0 l/m 0.5 km/h (0 Bft) O-SO 0.00 h 94 W/m 1.3 C 1.6 C 1.4 km/h (1 Bft)
07.02.2008 10:00 2.3 C 99 % 1038.6 hPa 0.0 l/m 0.2 km/h (0 Bft) O-SO 0.23 h 155 W/m 2.2 C 2.3 C 0.9 km/h (0 Bft)
07.02.2008 11:00 5.2 C 88 % 1038.5 hPa 0.0 l/m 0.7 km/h (0 Bft) O-SO 0.98 h 372 W/m 3.3 C 5.2 C 1.8 km/h (1 Bft)
07.02.2008 12:00 7.8 C 72 % 1038.0 hPa 0.0 l/m 3.3 km/h (1 Bft) O-SO 1.00 h 418 W/m 3.0 C 7.6 C 5.8 km/h (2 Bft)
07.02.2008 13:00 9.0 C 63 % 1037.6 hPa 0.0 l/m 3.5 km/h (1 Bft) O-SO 1.00 h 406 W/m 2.3 C 8.7 C 6.1 km/h (2 Bft)
07.02.2008 14:00 9.3 C 59 % 1037.0 hPa 0.0 l/m 3.7 km/h (1 Bft) O-SO 1.00 h 341 W/m 1.7 C 9.1 C 6.5 km/h (2 Bft)
07.02.2008 15:00 9.7 C 53 % 1037.1 hPa 0.0 l/m 3.3 km/h (1 Bft) O-SO 1.00 h 242 W/m 0.5 C 9.5 C 6.2 km/h (2 Bft)
07.02.2008 16:00 9.2 C 53 % 1037.3 hPa 0.0 l/m 2.4 km/h (1 Bft) O-NO 0.97 h 110 W/m 0.3 C 9.1 C 4.3 km/h (1 Bft)
07.02.2008 17:00 7.2 C 59 % 1037.5 hPa 0.0 l/m 4.5 km/h (1 Bft) O-SO 0.03 h 16 W/m -0.3 C 6.8 C 5.9 km/h (2 Bft)
07.02.2008 18:00 4.6 C 70 % 1038.1 hPa 0.0 l/m 2.6 km/h (1 Bft) O-SO 0.00 h 0 W/m -0.3 C 4.5 C 3.9 km/h (1 Bft)
07.02.2008 19:00 3.3 C 76 % 1038.8 hPa 0.0 l/m 0.8 km/h (0 Bft) O-SO 0.00 h 0 W/m -0.6 C 3.3 C 1.8 km/h (1 Bft)
07.02.2008 20:00 2.1 C 82 % 1039.1 hPa 0.0 l/m 0.1 km/h (0 Bft) O-SO 0.00 h 0 W/m -0.7 C 2.1 C 0.5 km/h (0 Bft)
07.02.2008 21:00 1.2 C 85 % 1039.4 hPa 0.0 l/m 1.0 km/h (0 Bft) O-SO 0.00 h 0 W/m -1.0 C 1.2 C 1.9 km/h (1 Bft)
07.02.2008 22:00 0.5 C 88 % 1039.5 hPa 0.0 l/m 0.3 km/h (0 Bft) O-SO 0.00 h 0 W/m -1.3 C 0.5 C 0.9 km/h (0 Bft)
07.02.2008 23:00 0.3 C 89 % 1039.4 hPa 0.0 l/m 0.3 km/h (0 Bft) O-SO 0.00 h 0 W/m -1.3 C 0.3 C 1.0 km/h (0 Bft)
08.02.2008 00:00 -0.1 C 90 % 1039.2 hPa 0.0 l/m 0.2 km/h (0 Bft) O-SO 0.00 h 0 W/m -1.6 C -0.1 C 0.6 km/h (0 Bft)
08.02.2008 01:00 -0.5 C 91 % 1039.1 hPa 0.0 l/m 0.3 km/h (0 Bft) O-SO 0.00 h 0 W/m -1.7 C -0.5 C 1.1 km/h (0 Bft)
08.02.2008 02:00 -0.7 C 92 % 1038.8 hPa 0.0 l/m 1.7 km/h (1 Bft) O-NO 0.00 h 0 W/m -1.8 C -0.7 C 3.4 km/h (1 Bft)
08.02.2008 03:00 -1.3 C 95 % 1038.4 hPa 0.0 l/m 1.0 km/h (0 Bft) N 0.00 h 0 W/m -2.0 C -1.3 C 2.1 km/h (1 Bft)
08.02.2008 04:00 -1.6 C 95 % 1038.2 hPa 0.0 l/m 0.1 km/h (0 Bft) N 0.00 h 0 W/m -2.3 C -1.6 C 0.3 km/h (0 Bft)
08.02.2008 05:00 -1.8 C 96 % 1038.4 hPa 0.0 l/m 0.0 km/h (0 Bft) N 0.00 h 0 W/m -2.4 C -1.8 C 0.0 km/h (0 Bft)
08.02.2008 06:00 -2.1 C 96 % 1038.7 hPa 0.0 l/m 0.4 km/h (0 Bft) N 0.00 h 0 W/m -2.7 C -2.1 C 1.0 km/h (0 Bft)
08.02.2008 07:00 -2.3 C 96 % 1038.8 hPa 0.0 l/m 0.0 km/h (0 Bft) N 0.02 h 7 W/m -2.8 C -2.3 C 0.1 km/h (0 Bft)
08.02.2008 08:00 -2.1 C 97 % 1038.8 hPa 0.0 l/m 0.1 km/h (0 Bft) N 0.12 h 41 W/m -2.5 C -2.1 C 0.3 km/h (0 Bft)
08.02.2008 09:00 -0.6 C 95 % 1038.9 hPa 0.0 l/m 0.1 km/h (0 Bft) N 1.00 h 206 W/m -1.3 C -0.6 C 0.4 km/h (0 Bft)
08.02.2008 10:00 3.0 C 73 % 1038.5 hPa 0.0 l/m 6.5 km/h (2 Bft) O-SO 0.75 h 248 W/m -1.3 C 1.5 C 9.5 km/h (2 Bft)
08.02.2008 11:00 5.2 C 62 % 1038.0 hPa 0.0 l/m 4.8 km/h (1 Bft) SO 0.95 h 386 W/m -1.4 C 4.4 C 7.5 km/h (2 Bft)
08.02.2008 12:00 7.4 C 52 % 1037.0 hPa 0.0 l/m 5.6 km/h (1 Bft) O-SO 1.00 h 431 W/m -1.7 C 6.6 C 9.3 km/h (2 Bft)
08.02.2008 13:00 8.5 C 44 % 1036.2 hPa 0.0 l/m 10.5 km/h (2 Bft) O-SO 1.00 h 418 W/m -3.1 C 6.8 C 16.9 km/h (3 Bft)
08.02.2008 14:00 9.2 C 40 % 1035.4 hPa 0.0 l/m 11.3 km/h (2 Bft) O-SO 1.00 h 351 W/m -3.8 C 7.6 C 16.3 km/h (3 Bft)
08.02.2008 15:00 9.8 C 38 % 1034.9 hPa 0.0 l/m 5.7 km/h (1 Bft) O-SO 1.00 h 245 W/m -3.8 C 9.3 C 9.6 km/h (2 Bft)
08.02.2008 16:00 9.6 C 37 % 1034.7 hPa 0.0 l/m 5.2 km/h (1 Bft) O-SO 0.98 h 115 W/m -4.4 C 9.2 C 8.6 km/h (2 Bft)
08.02.2008 17:00 8.8 C 37 % 1034.8 hPa 0.0 l/m 2.7 km/h (1 Bft) O 0.02 h 17 W/m -5.0 C 8.7 C 5.9 km/h (2 Bft)
08.02.2008 18:00 7.5 C 41 % 1035.4 hPa 0.0 l/m 4.0 km/h (1 Bft) N-NO 0.00 h 0 W/m -5.0 C 7.1 C 8.6 km/h (2 Bft)
08.02.2008 19:00 6.2 C 46 % 1035.8 hPa 0.0 l/m 3.2 km/h (1 Bft) O 0.00 h 0 W/m -4.4 C 6.0 C 6.1 km/h (2 Bft)
08.02.2008 20:00 4.8 C 51 % 1035.8 hPa 0.0 l/m 2.3 km/h (1 Bft) O-SO 0.00 h 0 W/m -4.5 C 4.7 C 4.3 km/h (1 Bft)
08.02.2008 21:00 3.6 C 55 % 1035.4 hPa 0.0 l/m 2.2 km/h (1 Bft) O-SO 0.00 h 0 W/m -4.5 C 3.5 C 3.3 km/h (1 Bft)
08.02.2008 22:00 2.6 C 60 % 1035.1 hPa 0.0 l/m 2.8 km/h (1 Bft) O 0.00 h 0 W/m -4.5 C 2.2 C 3.7 km/h (1 Bft)
08.02.2008 23:00 1.5 C 65 % 1034.8 hPa 0.0 l/m 4.8 km/h (1 Bft) O 0.00 h 0 W/m -4.3 C 0.4 C 5.9 km/h (2 Bft)
09.02.2008 00:00 1.2 C 67 % 1034.5 hPa 0.0 l/m 4.5 km/h (1 Bft) O 0.00 h 0 W/m -4.3 C 0.2 C 5.9 km/h (2 Bft)
09.02.2008 01:00 0.3 C 73 % 1034.2 hPa 0.0 l/m 3.3 km/h (1 Bft) SO 0.00 h 0 W/m -4.0 C -0.5 C 4.4 km/h (1 Bft)
09.02.2008 02:00 0.2 C 71 % 1034.2 hPa 0.0 l/m 0.1 km/h (0 Bft) SO 0.00 h 0 W/m -4.5 C 0.2 C 0.4 km/h (0 Bft)
09.02.2008 03:00 -0.8 C 79 % 1034.2 hPa 0.0 l/m 0.1 km/h (0 Bft) SO 0.00 h 0 W/m -3.9 C -0.8 C 0.5 km/h (0 Bft)
09.02.2008 04:00 -1.5 C 84 % 1034.3 hPa 0.0 l/m 0.8 km/h (0 Bft) SO 0.00 h 0 W/m -3.8 C -1.5 C 1.4 km/h (1 Bft)
09.02.2008 05:00 -1.5 C 85 % 1034.5 hPa 0.0 l/m 0.0 km/h (0 Bft) N 0.00 h 0 W/m -3.7 C -1.5 C 0.0 km/h (0 Bft)
09.02.2008 06:00 -2.0 C 86 % 1035.1 hPa 0.0 l/m 0.0 km/h (0 Bft) N 0.00 h 0 W/m -4.0 C -2.0 C 0.1 km/h (0 Bft)
09.02.2008 07:00 -2.3 C 88 % 1035.3 hPa 0.0 l/m 0.0 km/h (0 Bft) N 0.02 h 7 W/m -3.9 C -2.3 C 0.0 km/h (0 Bft)
09.02.2008 08:00 -2.1 C 91 % 1035.7 hPa 0.0 l/m 0.0 km/h (0 Bft) N 0.25 h 53 W/m -3.3 C -2.1 C 0.1 km/h (0 Bft)
09.02.2008 09:00 -0.4 C 86 % 1035.9 hPa 0.0 l/m 0.0 km/h (0 Bft) N 1.00 h 197 W/m -2.6 C -0.4 C 0.1 km/h (0 Bft)
09.02.2008 10:00 3.3 C 66 % 1035.4 hPa 0.0 l/m 3.2 km/h (1 Bft) O-SO 0.82 h 259 W/m -2.5 C 2.7 C 4.9 km/h (1 Bft)
09.02.2008 11:00 5.6 C 53 % 1035.0 hPa 0.0 l/m 9.3 km/h (2 Bft) SO 0.95 h 391 W/m -3.2 C 3.6 C 14.0 km/h (3 Bft)
09.02.2008 12:00 7.1 C 49 % 1034.4 hPa 0.0 l/m 7.6 km/h (2 Bft) SO 1.00 h 432 W/m -3.0 C 5.7 C 11.8 km/h (2 Bft)
09.02.2008 13:00 8.2 C 49 % 1033.7 hPa 0.0 l/m 9.4 km/h (2 Bft) SO 1.00 h 417 W/m -1.9 C 6.7 C 14.3 km/h (3 Bft)
09.02.2008 14:00 9.0 C 46 % 1033.3 hPa 0.0 l/m 7.7 km/h (2 Bft) O-SO 1.00 h 353 W/m -1.9 C 8.0 C 11.3 km/h (2 Bft)
09.02.2008 15:00 9.5 C 46 % 1033.1 hPa 0.0 l/m 6.5 km/h (2 Bft) SO 1.00 h 248 W/m -1.7 C 8.8 C 9.5 km/h (2 Bft)
09.02.2008 16:00 9.0 C 48 % 1033.3 hPa 0.0 l/m 4.2 km/h (1 Bft) O-SO 1.00 h 117 W/m -1.4 C 8.7 C 6.1 km/h (2 Bft)
09.02.2008 17:00 7.3 C 55 % 1033.4 hPa 0.0 l/m 3.1 km/h (1 Bft) O-SO 0.13 h 18 W/m -1.2 C 7.2 C 5.0 km/h (1 Bft)
09.02.2008 18:00 5.3 C 61 % 1033.9 hPa 0.0 l/m 1.0 km/h (0 Bft) SO 0.00 h 0 W/m -1.5 C 5.3 C 2.0 km/h (1 Bft)
09.02.2008 19:00 4.7 C 61 % 1034.2 hPa 0.0 l/m 1.4 km/h (1 Bft) O 0.00 h 0 W/m -2.2 C 4.7 C 2.9 km/h (1 Bft)
09.02.2008 20:00 5.1 C 56 % 1034.2 hPa 0.0 l/m 1.7 km/h (1 Bft) O 0.00 h 0 W/m -3.0 C 5.0 C 3.9 km/h (1 Bft)
09.02.2008 21:00 3.0 C 66 % 1034.3 hPa 0.0 l/m 0.1 km/h (0 Bft) O-SO 0.00 h 0 W/m -2.6 C 3.0 C 0.5 km/h (0 Bft)
09.02.2008 22:00 1.9 C 72 % 1034.0 hPa 0.0 l/m 0.2 km/h (0 Bft) O-SO 0.00 h 0 W/m -2.5 C 1.9 C 1.0 km/h (0 Bft)
09.02.2008 23:00 1.6 C 73 % 1033.9 hPa 0.0 l/m 1.0 km/h (0 Bft) O-SO 0.00 h 0 W/m -2.7 C 1.5 C 1.9 km/h (1 Bft)
10.02.2008 00:00 0.3 C 83 % 1033.9 hPa 0.0 l/m 0.3 km/h (0 Bft) O 0.00 h 0 W/m -2.2 C 0.3 C 0.7 km/h (0 Bft)
10.02.2008 01:00 -0.1 C 85 % 1033.8 hPa 0.0 l/m 0.0 km/h (0 Bft) N 0.00 h 0 W/m -2.3 C -0.1 C 0.0 km/h (0 Bft)
10.02.2008 02:00 -0.7 C 88 % 1033.7 hPa 0.0 l/m 0.1 km/h (0 Bft) O 0.00 h 0 W/m -2.5 C -0.7 C 0.1 km/h (0 Bft)
10.02.2008 03:00 -1.2 C 90 % 1033.8 hPa 0.0 l/m 0.1 km/h (0 Bft) O 0.00 h 0 W/m -2.6 C -1.2 C 0.3 km/h (0 Bft)
10.02.2008 04:00 -1.7 C 92 % 1033.8 hPa 0.0 l/m 0.1 km/h (0 Bft) O 0.00 h 0 W/m -2.9 C -1.7 C 0.2 km/h (0 Bft)
10.02.2008 05:00 -1.9 C 93 % 1033.9 hPa 0.0 l/m 0.1 km/h (0 Bft) O 0.00 h 0 W/m -2.9 C -1.9 C 0.5 km/h (0 Bft)
10.02.2008 06:00 -2.2 C 93 % 1034.1 hPa 0.0 l/m 0.2 km/h (0 Bft) O 0.00 h 0 W/m -3.1 C -2.2 C 0.7 km/h (0 Bft)
10.02.2008 07:00 -2.5 C 95 % 1034.2 hPa 0.0 l/m 0.4 km/h (0 Bft) O-SO 0.02 h 8 W/m -3.2 C -2.5 C 0.9 km/h (0 Bft)
10.02.2008 08:00 -2.4 C 95 % 1034.4 hPa 0.0 l/m 0.0 km/h (0 Bft) O-SO 0.23 h 52 W/m -3.1 C -2.4 C 0.3 km/h (0 Bft)
10.02.2008 09:00 -0.8 C 93 % 1034.3 hPa 0.0 l/m 0.0 km/h (0 Bft) N 1.00 h 204 W/m -1.8 C -0.8 C 0.2 km/h (0 Bft)
10.02.2008 10:00 2.2 C 78 % 1034.1 hPa 0.0 l/m 2.2 km/h (1 Bft) O-SO 0.77 h 240 W/m -1.3 C 1.8 C 4.0 km/h (1 Bft)
10.02.2008 11:00 4.5 C 65 % 1034.0 hPa 0.0 l/m 7.7 km/h (2 Bft) O-SO 1.00 h 369 W/m -1.4 C 2.7 C 12.0 km/h (2 Bft)
10.02.2008 12:00 6.2 C 61 % 1033.7 hPa 0.0 l/m 7.2 km/h (2 Bft) O-SO 1.00 h 429 W/m -0.8 C 4.8 C 10.8 km/h (2 Bft)
10.02.2008 13:00 7.8 C 57 % 1033.1 hPa 0.0 l/m 7.3 km/h (2 Bft) O-SO 1.00 h 415 W/m -0.2 C 6.6 C 11.2 km/h (2 Bft)
10.02.2008 14:00 9.0 C 52 % 1032.6 hPa 0.0 l/m 7.0 km/h (2 Bft) O-SO 1.00 h 357 W/m -0.3 C 8.1 C 10.7 km/h (2 Bft)
10.02.2008 15:00 9.2 C 45 % 1032.5 hPa 0.0 l/m 11.0 km/h (2 Bft) O-SO 1.00 h 255 W/m -2.0 C 7.6 C 16.3 km/h (3 Bft)
10.02.2008 16:00 8.6 C 50 % 1032.7 hPa 0.0 l/m 6.8 km/h (2 Bft) O-SO 1.00 h 120 W/m -1.3 C 7.7 C 10.9 km/h (2 Bft)
10.02.2008 17:00 7.4 C 55 % 1032.8 hPa 0.0 l/m 3.4 km/h (1 Bft) O-SO 0.08 h 21 W/m -1.1 C 7.1 C 6.3 km/h (2 Bft)
10.02.2008 18:00 6.3 C 60 % 1033.5 hPa 0.0 l/m 2.0 km/h (1 Bft) NO 0.00 h 0 W/m -1.0 C 6.0 C 4.6 km/h (1 Bft)
10.02.2008 19:00 5.4 C 64 % 1033.7 hPa 0.0 l/m 2.1 km/h (1 Bft) N-NO 0.00 h 0 W/m -0.8 C 5.3 C 4.8 km/h (1 Bft)
10.02.2008 20:00 4.7 C 67 % 1033.9 hPa 0.0 l/m 2.0 km/h (1 Bft) O 0.00 h 0 W/m -0.8 C 4.6 C 5.0 km/h (1 Bft)
10.02.2008 21:00 4.2 C 68 % 1033.8 hPa 0.0 l/m 2.3 km/h (1 Bft) O-SO 0.00 h 0 W/m -1.2 C 4.0 C 5.6 km/h (1 Bft)
10.02.2008 22:00 3.7 C 68 % 1033.7 hPa 0.0 l/m 1.0 km/h (0 Bft) O-NO 0.00 h 0 W/m -1.5 C 3.7 C 2.8 km/h (1 Bft)
10.02.2008 23:00 3.4 C 68 % 1033.5 hPa 0.0 l/m 1.0 km/h (0 Bft) O 0.00 h 0 W/m -2.1 C 3.3 C 3.1 km/h (1 Bft)
Min-Datum _ 04.02.08 08.02.08 04.02.08 - 04.02.08 - - - 08.02.08 04.02.08 04.02.08
_ Min-Zeit 00:30 16:11 08:00 - 00:00 - - - 17:51 07:24 00:00
Minimum _ -3.8 C 34 % 1006.4 hPa - 0.0 km/h (0 Bft) - - - -5.7 C -6.8 C 0.0 km/h (0 Bft)
Max-Datum _ 06.02.08 07.02.08 07.02.08 06.02.08 06.02.08 - 04.02.08 05.02.08 06.02.08 06.02.08 06.02.08
_ Max-Zeit 14:28 10:32 22:45 04:07 13:38 - 11:58 11:10 12:15 14:28 19:36
Maximum _ 11.5 C 100 % 1039.6 hPa 2.4 l/m 30.4 km/h
W (5 Bft)
- 0.02 h 570 W/m 7.0 C 11.6 C 50.4 km/h
W (7 Bft)
Durchschnitt _ 3.6 C 78 % 1029.0 hPa #7.6 l/m 3.4 km/h (1 Bft) O-SO #32:45 h 167 W/m -0.3 C 3.1 C 5.9 km/h (2 Bft)
© Kaiko 2008